Time;durP1;ratioP1;P1;durP2;ratioP2;P2;SDS_P1;SDS_P2;PMS_P1;PMS_P2;Temp;Humidity;BMP_temperature;BMP_pressure;BME280_temperature;BME280_humidity;BME280_pressure;Samples;Min_cycle;Max_cycle;Signal;HPM_P1;HPM_P2
2022/07/12 00:02:13;;;;;;;7.10;4.05;;;;;;;;;;5034062;28;20045;-68
2022/07/12 00:04:39;;;;;;;7.75;5.10;;;;;;;;;;5050047;28;20098;-68
2022/07/12 00:07:05;;;;;;;7.32;4.65;;;;;;;;;;5051469;28;20044;-68
2022/07/12 00:09:31;;;;;;;7.70;4.97;;;;;;;;;;5050881;28;20045;-68
2022/07/12 00:12:00;;;;;;;7.57;5.00;;;;;;;;;;5049285;28;20044;-68
2022/07/12 00:14:26;;;;;;;8.55;4.93;;;;;;;;;;5050758;28;20489;-68
2022/07/12 00:16:52;;;;;;;11.32;6.85;;;;;;;;;;5050528;28;20045;-68
2022/07/12 00:19:18;;;;;;;10.40;6.05;;;;;;;;;;5051200;28;20478;-68
2022/07/12 00:21:44;;;;;;;9.93;6.07;;;;;;;;;;5050186;28;20044;-68
2022/07/12 00:24:11;;;;;;;9.43;5.95;;;;;;;;;;5051531;28;20493;-68
2022/07/12 00:26:37;;;;;;;9.02;5.95;;;;;;;;;;5049831;28;20206;-68
2022/07/12 00:29:03;;;;;;;11.82;8.25;;;;;;;;;;5051283;28;20607;-68
2022/07/12 00:31:29;;;;;;;12.85;7.80;;;;;;;;;;5050614;28;20045;-68
2022/07/12 00:33:55;;;;;;;9.57;6.45;;;;;;;;;;5049648;28;20052;-67
2022/07/12 00:36:21;;;;;;;8.63;5.72;;;;;;;;;;5051619;28;20134;-67
2022/07/12 00:38:47;;;;;;;9.90;6.75;;;;;;;;;;5050219;28;20045;-68
2022/07/12 00:41:13;;;;;;;8.93;6.20;;;;;;;;;;5049417;28;20036;-68
2022/07/12 00:43:39;;;;;;;11.18;6.90;;;;;;;;;;5051881;28;20072;-68
2022/07/12 00:46:05;;;;;;;12.07;7.53;;;;;;;;;;5051145;28;20063;-68
2022/07/12 00:48:36;;;;;;;10.45;7.45;;;;;;;;;;5036899;28;20048;-67
2022/07/12 00:51:02;;;;;;;12.82;8.20;;;;;;;;;;5053597;28;20047;-68
2022/07/12 00:53:28;;;;;;;9.10;6.82;;;;;;;;;;5054271;28;20128;-68
2022/07/12 00:55:55;;;;;;;9.93;6.65;;;;;;;;;;5052847;28;20071;-67
2022/07/12 00:58:22;;;;;;;10.07;6.25;;;;;;;;;;5054763;28;20098;-67
2022/07/12 01:00:48;;;;;;;11.05;7.68;;;;;;;;;;5053732;28;20086;-67
2022/07/12 01:03:15;;;;;;;12.52;8.82;;;;;;;;;;5053294;28;20037;-67
2022/07/12 01:05:41;;;;;;;11.00;7.22;;;;;;;;;;5054261;28;20033;-67
2022/07/12 01:08:07;;;;;;;9.90;7.32;;;;;;;;;;5052653;28;20555;-67
2022/07/12 01:10:34;;;;;;;11.15;7.18;;;;;;;;;;5054099;28;20079;-68
2022/07/12 01:13:01;;;;;;;10.65;6.82;;;;;;;;;;5054637;28;20436;-68
2022/07/12 01:15:29;;;;;;;10.32;6.80;;;;;;;;;;5054312;28;20151;-67
2022/07/12 01:17:56;;;;;;;10.18;7.22;;;;;;;;;;5036492;28;20044;-68
2022/07/12 01:20:23;;;;;;;9.43;6.70;;;;;;;;;;5055216;28;20163;-67
2022/07/12 01:22:53;;;;;;;11.60;8.05;;;;;;;;;;5052563;28;20052;-67
2022/07/12 01:25:19;;;;;;;12.15;8.35;;;;;;;;;;5054918;28;20128;-68
2022/07/12 01:27:46;;;;;;;10.75;7.75;;;;;;;;;;5053369;28;20044;-68
2022/07/12 01:30:12;;;;;;;15.02;8.55;;;;;;;;;;5053762;28;20040;-67
2022/07/12 01:32:39;;;;;;;12.82;8.95;;;;;;;;;;5054752;28;20048;-67
2022/07/12 01:35:05;;;;;;;11.98;7.18;;;;;;;;;;5053218;28;20041;-68
2022/07/12 01:37:35;;;;;;;11.30;7.88;;;;;;;;;;5052544;28;20045;-67
2022/07/12 01:40:02;;;;;;;10.63;7.10;;;;;;;;;;5053183;28;20375;-68
2022/07/12 01:42:30;;;;;;;13.63;9.13;;;;;;;;;;5053292;28;20037;-68
2022/07/12 01:44:56;;;;;;;11.35;7.97;;;;;;;;;;5052307;28;20126;-68
2022/07/12 01:47:23;;;;;;;13.30;9.10;;;;;;;;;;5054663;28;20166;-67
2022/07/12 01:49:49;;;;;;;10.60;7.57;;;;;;;;;;5054327;28;20410;-67
2022/07/12 01:52:16;;;;;;;12.07;7.22;;;;;;;;;;5052367;28;20390;-68
2022/07/12 01:54:42;;;;;;;9.73;7.07;;;;;;;;;;5054482;28;20041;-67
2022/07/12 01:57:09;;;;;;;14.07;8.05;;;;;;;;;;5052416;28;20371;-67
2022/07/12 01:59:35;;;;;;;12.07;8.30;;;;;;;;;;5052781;28;20416;-67
2022/07/12 02:02:02;;;;;;;12.68;8.75;;;;;;;;;;5036131;28;20051;-67
2022/07/12 02:04:28;;;;;;;10.00;6.70;;;;;;;;;;5053463;28;20476;-68
2022/07/12 02:06:55;;;;;;;9.52;7.03;;;;;;;;;;5053566;28;20466;-68
2022/07/12 02:09:21;;;;;;;9.68;7.18;;;;;;;;;;5053007;28;20127;-68
2022/07/12 02:11:47;;;;;;;11.43;7.40;;;;;;;;;;5053004;28;20049;-68
2022/07/12 02:14:13;;;;;;;12.05;8.13;;;;;;;;;;5053809;28;20063;-68
2022/07/12 02:16:40;;;;;;;11.25;8.48;;;;;;;;;;5054050;28;20041;-68
2022/07/12 02:19:06;;;;;;;12.00;8.35;;;;;;;;;;5051560;28;20363;-68
2022/07/12 02:21:32;;;;;;;10.20;7.32;;;;;;;;;;5053769;28;20390;-68
2022/07/12 02:23:58;;;;;;;13.55;8.90;;;;;;;;;;5052435;28;20056;-68
2022/07/12 02:26:24;;;;;;;12.68;7.22;;;;;;;;;;5052806;28;20394;-68
2022/07/12 02:28:50;;;;;;;13.75;8.55;;;;;;;;;;5052421;28;20076;-68
2022/07/12 02:31:16;;;;;;;11.35;7.25;;;;;;;;;;5053547;28;20125;-68
2022/07/12 02:33:42;;;;;;;12.88;7.80;;;;;;;;;;5052028;28;20128;-68
2022/07/12 02:36:08;;;;;;;11.85;6.95;;;;;;;;;;5051840;28;20060;-67
2022/07/12 02:38:34;;;;;;;11.77;7.10;;;;;;;;;;5053495;28;20052;-67
2022/07/12 02:41:00;;;;;;;18.60;8.52;;;;;;;;;;5051224;28;20041;-68
2022/07/12 02:43:27;;;;;;;17.80;8.00;;;;;;;;;;5052555;28;20446;-68
2022/07/12 02:46:03;;;;;;;38.58;9.90;;;;;;;;;;5051697;28;20520;-67
2022/07/12 02:48:29;;;;;;;24.85;8.00;;;;;;;;;;5052730;28;20036;-67
2022/07/12 02:50:55;;;;;;;10.25;6.78;;;;;;;;;;5052631;28;20044;-68
2022/07/12 02:53:22;;;;;;;10.55;7.10;;;;;;;;;;5051934;28;20489;-68
2022/07/12 02:55:48;;;;;;;11.15;7.32;;;;;;;;;;5051291;28;20052;-67
2022/07/12 02:58:14;;;;;;;24.52;10.43;;;;;;;;;;5052881;28;20087;-68
2022/07/12 03:00:41;;;;;;;11.95;7.32;;;;;;;;;;5052509;28;20051;-68
2022/07/12 03:03:08;;;;;;;11.82;7.95;;;;;;;;;;5052849;28;20071;-67
2022/07/12 03:05:34;;;;;;;10.68;6.55;;;;;;;;;;5051646;28;20037;-68
2022/07/12 03:08:01;;;;;;;10.00;6.47;;;;;;;;;;5050406;28;20083;-68
2022/07/12 03:10:27;;;;;;;10.20;5.97;;;;;;;;;;5051218;28;20084;-68
2022/07/12 03:12:56;;;;;;;8.88;6.10;;;;;;;;;;5051073;28;20041;-68
2022/07/12 03:15:22;;;;;;;23.73;9.38;;;;;;;;;;5050813;28;20052;-68
2022/07/12 03:17:48;;;;;;;10.25;7.10;;;;;;;;;;5051071;28;20506;-68
2022/07/12 03:20:14;;;;;;;11.18;7.10;;;;;;;;;;5051151;28;20080;-67
2022/07/12 03:22:46;;;;;;;15.43;6.70;;;;;;;;;;5050644;28;20057;-68
2022/07/12 03:25:12;;;;;;;12.05;6.00;;;;;;;;;;5051583;28;20433;-68
2022/07/12 03:27:39;;;;;;;11.30;4.57;;;;;;;;;;5051417;28;20049;-68
2022/07/12 03:30:05;;;;;;;5.88;3.58;;;;;;;;;;5051246;28;20047;-67
2022/07/12 03:32:31;;;;;;;6.45;3.90;;;;;;;;;;5052658;28;20124;-68
2022/07/12 03:34:57;;;;;;;7.25;4.20;;;;;;;;;;5051935;28;20098;-67
2022/07/12 03:37:23;;;;;;;8.82;4.35;;;;;;;;;;5050267;28;20104;-68
2022/07/12 03:39:50;;;;;;;8.13;4.65;;;;;;;;;;5052252;28;20036;-67
2022/07/12 03:42:16;;;;;;;8.73;5.30;;;;;;;;;;5050866;28;20075;-68
2022/07/12 03:44:42;;;;;;;9.23;5.18;;;;;;;;;;5050459;28;20067;-68
2022/07/12 03:47:08;;;;;;;7.55;5.28;;;;;;;;;;5050847;28;20041;-68
2022/07/12 03:49:34;;;;;;;13.65;5.80;;;;;;;;;;5051105;28;20045;-68
2022/07/12 03:52:02;;;;;;;8.45;4.80;;;;;;;;;;5050949;28;20048;-68
2022/07/12 03:54:28;;;;;;;7.55;4.63;;;;;;;;;;5051354;28;20053;-67
2022/07/12 03:59:39;;;;;;;10.10;6.40;;;;;;;;;;5051516;28;20363;-68
2022/07/12 04:02:05;;;;;;;7.50;5.20;;;;;;;;;;5051631;28;20041;-67
2022/07/12 04:04:31;;;;;;;8.27;5.00;;;;;;;;;;5050323;28;20064;-67
2022/07/12 04:06:57;;;;;;;10.18;5.80;;;;;;;;;;5051478;28;20478;-68
2022/07/12 04:09:23;;;;;;;9.77;5.90;;;;;;;;;;5052285;28;20044;-68
2022/07/12 04:11:49;;;;;;;7.35;4.75;;;;;;;;;;5050056;28;20045;-68
2022/07/12 04:14:15;;;;;;;7.78;4.90;;;;;;;;;;5034027;28;20128;-68
2022/07/12 04:16:41;;;;;;;10.27;6.18;;;;;;;;;;5050700;28;20126;-68
2022/07/12 04:19:10;;;;;;;12.38;5.63;;;;;;;;;;5049798;28;20037;-68
2022/07/12 04:21:37;;;;;;;8.13;5.32;;;;;;;;;;5052685;28;20037;-68
2022/07/12 04:24:03;;;;;;;7.80;5.03;;;;;;;;;;5054400;28;20057;-68
2022/07/12 04:26:29;;;;;;;6.95;4.75;;;;;;;;;;5055387;28;20090;-68
2022/07/12 04:28:55;;;;;;;10.18;5.25;;;;;;;;;;5055408;28;20041;-68
2022/07/12 04:31:21;;;;;;;8.15;5.70;;;;;;;;;;5056049;28;20055;-68
2022/07/12 04:33:47;;;;;;;7.25;4.82;;;;;;;;;;5054790;28;20068;-68
2022/07/12 04:36:13;;;;;;;8.00;4.68;;;;;;;;;;5054270;28;20053;-67
2022/07/12 04:38:39;;;;;;;9.45;4.63;;;;;;;;;;5054893;28;20381;-67
2022/07/12 04:41:06;;;;;;;7.22;4.47;;;;;;;;;;5053084;28;20116;-67
2022/07/12 04:43:32;;;;;;;6.15;3.88;;;;;;;;;;5054769;28;20087;-68
2022/07/12 04:46:06;;;;;;;6.00;3.83;;;;;;;;;;5053142;28;20052;-68
2022/07/12 04:48:32;;;;;;;7.28;4.50;;;;;;;;;;5055927;28;20114;-67
2022/07/12 04:50:58;;;;;;;7.25;4.65;;;;;;;;;;5055204;28;20486;-67
2022/07/12 04:53:24;;;;;;;7.07;4.80;;;;;;;;;;5054996;28;20040;-68
2022/07/12 04:55:50;;;;;;;8.13;4.35;;;;;;;;;;5054026;28;20393;-68
2022/07/12 04:58:16;;;;;;;6.40;3.90;;;;;;;;;;5053859;28;20049;-68
2022/07/12 05:00:42;;;;;;;6.85;4.00;;;;;;;;;;5054677;28;20033;-68
2022/07/12 05:03:08;;;;;;;6.78;4.50;;;;;;;;;;5055105;28;20073;-68
2022/07/12 05:05:34;;;;;;;6.93;4.35;;;;;;;;;;5055402;28;20091;-67
2022/07/12 05:08:00;;;;;;;6.53;4.00;;;;;;;;;;5052932;28;20049;-68
2022/07/12 05:10:26;;;;;;;6.82;4.32;;;;;;;;;;5054294;28;20045;-67
2022/07/12 05:12:52;;;;;;;6.63;4.32;;;;;;;;;;5055020;28;20061;-67
2022/07/12 05:15:18;;;;;;;6.40;4.00;;;;;;;;;;5053047;28;20501;-67
2022/07/12 05:17:45;;;;;;;8.23;3.80;;;;;;;;;;5054928;28;20049;-67
2022/07/12 05:20:11;;;;;;;6.45;4.18;;;;;;;;;;5054954;28;20055;-68
2022/07/12 05:22:37;;;;;;;5.70;3.45;;;;;;;;;;5054013;28;20061;-68
2022/07/12 05:25:04;;;;;;;6.20;3.85;;;;;;;;;;5053233;28;20055;-68
2022/07/12 05:27:31;;;;;;;5.38;3.33;;;;;;;;;;5053656;28;20608;-68
2022/07/12 05:29:57;;;;;;;7.18;3.63;;;;;;;;;;5052287;28;20044;-68
2022/07/12 05:32:23;;;;;;;6.85;4.22;;;;;;;;;;5054748;28;20068;-68
2022/07/12 05:34:49;;;;;;;7.75;4.25;;;;;;;;;;5054718;28;20060;-68
2022/07/12 05:37:16;;;;;;;6.35;3.80;;;;;;;;;;5053837;28;20130;-67
2022/07/12 05:39:42;;;;;;;7.13;4.20;;;;;;;;;;5053544;28;20056;-68
2022/07/12 05:42:09;;;;;;;7.03;3.75;;;;;;;;;;5053602;28;20420;-68
2022/07/12 05:44:35;;;;;;;6.32;4.30;;;;;;;;;;5052730;28;20482;-68
2022/07/12 05:47:01;;;;;;;8.25;3.58;;;;;;;;;;5036007;28;20044;-68
2022/07/12 05:49:27;;;;;;;5.68;3.47;;;;;;;;;;5052788;28;20181;-68
2022/07/12 05:54:38;;;;;;;6.53;4.30;;;;;;;;;;5054409;28;20064;-69
2022/07/12 05:57:04;;;;;;;5.45;3.42;;;;;;;;;;5053320;28;20136;-68
2022/07/12 05:59:31;;;;;;;6.38;3.53;;;;;;;;;;5054313;28;20037;-68
2022/07/12 06:01:57;;;;;;;6.40;4.45;;;16.70;99.90;;;;;;5053856;28;20393;-69
2022/07/12 06:04:22;;;;;;;5.32;3.50;;;16.70;99.90;;;;;;5065308;28;20048;-69
2022/07/12 06:06:48;;;;;;;5.80;3.60;;;16.80;99.90;;;;;;5070802;28;20032;-69
2022/07/12 06:09:13;;;;;;;7.38;4.20;;;16.90;99.90;;;;;;5073801;28;20037;-69
2022/07/12 06:11:39;;;;;;;6.45;3.97;;;16.90;99.90;;;;;;5064658;28;20094;-68
2022/07/12 06:14:05;;;;;;;7.03;4.05;;;17.00;99.90;;;;;;5051696;28;20111;-69
2022/07/12 06:16:31;;;;;;;5.18;3.30;;;;;;;;;;5053257;28;20040;-68
2022/07/12 06:18:57;;;;;;;5.82;3.42;;;;;;;;;;5059929;28;20039;-68
2022/07/12 06:21:23;;;;;;;6.30;3.80;;;17.40;99.90;;;;;;5070831;28;20036;-68
2022/07/12 06:23:49;;;;;;;5.90;3.50;;;;;;;;;;5072018;28;20456;-68
2022/07/12 06:26:17;;;;;;;6.30;3.30;;;;;;;;;;5071146;28;20044;-68
2022/07/12 06:28:43;;;;;;;8.25;4.32;;;;;;;;;;5060177;28;20599;-68
2022/07/12 06:31:09;;;;;;;5.63;2.85;;;;;;;;;;5054499;28;20033;-68
2022/07/12 06:33:36;;;;;;;6.35;3.55;;;;;;;;;;5062788;28;20470;-68
2022/07/12 06:36:02;;;;;;;5.03;2.70;;;;;;;;;;5052903;28;20037;-69
2022/07/12 06:38:28;;;;;;;5.03;2.92;;;;;;;;;;5064201;28;20064;-69
2022/07/12 06:40:53;;;;;;;6.70;3.30;;;18.10;99.90;;;;;;5051624;28;20079;-68
2022/07/12 06:43:19;;;;;;;4.60;2.50;;;18.30;99.90;;;;;;5066709;28;20450;-68
2022/07/12 06:45:45;;;;;;;5.13;3.20;;;;;;;;;;5065006;28;20045;-69
2022/07/12 06:48:10;;;;;;;6.28;2.80;;;18.40;99.90;;;;;;5049478;28;20045;-69
2022/07/12 06:50:36;;;;;;;6.43;3.20;;;18.40;99.90;;;;;;5053575;28;20377;-69
2022/07/12 06:53:02;;;;;;;5.05;2.67;;;18.40;99.90;;;;;;5049793;28;20041;-69
2022/07/12 06:55:28;;;;;;;5.85;3.00;;;18.40;99.90;;;;;;5069394;28;20477;-69
2022/07/12 06:57:54;;;;;;;5.50;2.78;;;18.40;99.90;;;;;;5062738;28;20051;-69
2022/07/12 07:00:19;;;;;;;5.45;2.70;;;18.40;99.90;;;;;;5050728;28;20033;-69
2022/07/12 07:02:45;;;;;;;5.45;3.13;;;18.50;99.90;;;;;;5057814;28;20041;-69
2022/07/12 07:05:11;;;;;;;6.35;2.65;;;18.60;99.90;;;;;;5059700;28;20478;-69
2022/07/12 07:07:37;;;;;;;7.50;2.42;;;;;;;;;;5034942;28;20154;-69
2022/07/12 07:10:04;;;;;;;4.93;2.80;;;;;;;;;;5051083;28;20114;-69
2022/07/12 07:12:29;;;;;;;6.03;2.80;;;19.20;99.90;;;;;;5065166;28;20040;-69
2022/07/12 07:14:55;;;;;;;6.13;3.08;;;;;;;;;;5068235;28;20051;-69
2022/07/12 07:17:21;;;;;;;6.28;2.95;;;;;;;;;;5052411;28;20484;-69
2022/07/12 07:19:47;;;;;;;4.68;2.78;;;;;;;;;;5057971;28;20191;-69
2022/07/12 07:22:13;;;;;;;4.95;2.45;;;;;;;;;;5069276;28;20060;-69
2022/07/12 07:24:40;;;;;;;5.55;2.78;;;;;;;;;;5069125;28;20094;-69
2022/07/12 07:27:06;;;;;;;5.28;3.00;;;;;;;;;;5064719;28;20098;-68
2022/07/12 07:32:16;;;;;;;5.00;3.03;;;19.80;99.90;;;;;;5068611;28;20455;-68
2022/07/12 07:34:42;;;;;;;5.57;3.05;;;;;;;;;;5070069;28;20119;-67
2022/07/12 07:37:08;;;;;;;5.68;2.75;;;;;;;;;;5051603;28;20045;-71
2022/07/12 07:39:34;;;;;;;4.72;2.88;;;19.70;99.90;;;;;;5050344;28;20056;-71
2022/07/12 07:42:00;;;;;;;6.55;2.95;;;19.70;99.90;;;;;;5057434;28;20075;-73
2022/07/12 07:44:26;;;;;;;5.28;2.95;;;19.70;99.90;;;;;;5055238;28;20036;-72
2022/07/12 07:46:51;;;;;;;5.22;3.10;;;19.80;99.90;;;;;;5071689;28;20071;-72
2022/07/12 07:49:17;;;;;;;6.60;3.45;;;19.80;99.90;;;;;;5067816;28;20084;-73
2022/07/12 07:51:43;;;;;;;5.05;3.13;;;19.90;99.90;;;;;;5049151;28;20123;-68
2022/07/12 07:54:08;;;;;;;7.15;3.22;;;19.90;99.90;;;;;;5054488;28;20064;-74
2022/07/12 07:56:34;;;;;;;5.75;3.25;;;19.80;99.90;;;;;;5057789;28;20102;-74
2022/07/12 07:58:59;;;;;;;5.32;3.20;;;19.80;99.90;;;;;;5055882;28;20417;-74
2022/07/12 08:01:47;;;;;;;5.38;3.30;;;19.80;99.90;;;;;;5056019;28;20037;-74
2022/07/12 08:04:12;;;;;;;5.32;3.00;;;19.80;99.90;;;;;;5047705;28;20466;-74
2022/07/12 08:06:38;;;;;;;5.95;3.53;;;19.90;99.90;;;;;;5047678;28;20048;-74
2022/07/12 08:09:05;;;;;;;5.45;3.40;;;19.90;99.90;;;;;;5048017;28;20086;-74
2022/07/12 08:11:31;;;;;;;5.00;3.05;;;19.80;99.90;;;;;;5047408;28;20099;-74
2022/07/12 08:13:57;;;;;;;6.18;3.05;;;19.80;99.90;;;;;;5047660;28;20220;-74
2022/07/12 08:16:23;;;;;;;5.45;3.17;;;19.90;99.90;;;;;;5059023;28;20538;-73
2022/07/12 08:18:48;;;;;;;5.15;2.95;;;20.00;99.90;;;;;;5064465;28;20094;-73
2022/07/12 08:21:14;;;;;;;6.50;3.25;;;20.10;99.90;;;;;;5063611;28;20036;-71
2022/07/12 08:23:40;;;;;;;5.07;3.40;;;20.20;99.90;;;;;;5065150;28;20102;-74
2022/07/12 08:26:05;;;;;;;6.45;3.78;;;20.50;99.90;;;;;;5070994;28;20036;-75
2022/07/12 08:28:31;;;;;;;6.05;3.80;;;20.50;99.90;;;;;;5068907;28;20047;-74
2022/07/12 08:30:58;;;;;;;5.68;3.50;;;20.80;99.90;;;;;;5070192;28;20071;-74
2022/07/12 08:33:24;;;;;;;5.45;3.63;;;20.80;99.90;;;;;;5070589;28;20033;-74
2022/07/12 08:35:49;;;;;;;6.70;3.83;;;20.90;99.90;;;;;;5071878;28;20177;-74
2022/07/12 08:38:15;;;;;;;6.20;3.30;;;21.20;99.90;;;;;;5067809;28;20040;-74
2022/07/12 08:40:41;;;;;;;5.93;3.60;;;20.90;99.90;;;;;;5070761;28;20037;-74
2022/07/12 08:43:08;;;;;;;6.90;4.05;;;;;;;;;;5057668;28;20037;-74
2022/07/12 08:45:34;;;;;;;5.78;3.78;;;21.10;99.90;;;;;;5050017;28;20041;-74
2022/07/12 08:47:59;;;;;;;6.45;3.35;;;21.20;99.90;;;;;;5049831;28;20045;-74
2022/07/12 08:50:27;;;;;;;6.05;3.90;;;;;;;;;;5050622;28;20049;-74
2022/07/12 08:52:54;;;;;;;6.57;4.30;;;;;;;;;;5051463;28;20045;-74
2022/07/12 08:55:26;;;;;;;8.38;3.40;;;;;;;;;;5051130;28;20045;-74
2022/07/12 08:57:58;;;;;;;6.13;3.72;;;21.70;99.90;;;;;;5050222;28;20045;-74
2022/07/12 09:00:25;;;;;;;6.18;3.42;;;21.70;99.90;;;;;;5056123;28;20036;-75
2022/07/12 09:02:51;;;;;;;5.22;3.15;;;;;;;;;;5071357;28;20509;-74
2022/07/12 09:05:18;;;;;;;5.72;3.38;;;22.20;99.90;;;;;;5071589;28;20033;-74
2022/07/12 09:07:45;;;;;;;5.97;3.83;;;;;;;;;;5071249;28;20032;-74
2022/07/12 09:10:12;;;;;;;6.85;4.13;;;;;;;;;;5073867;28;20101;-75
2022/07/12 09:12:38;;;;;;;8.73;3.85;;;;;;;;;;5065774;28;20553;-74
2022/07/12 09:15:19;;;;;;;7.05;3.83;;;22.30;99.90;;;;;;5054133;28;20363;-74
2022/07/12 09:18:12;;;;;;;5.45;4.03;;;;;;;;;;5053811;28;20045;-74
2022/07/12 09:20:38;;;;;;;7.40;3.75;;;;;;;;;;5053025;28;20056;-74
2022/07/12 09:23:08;;;;;;;7.10;4.55;;;22.90;99.90;;;;;;5053049;28;20052;-74
2022/07/12 09:25:35;;;;;;;6.20;4.25;;;22.80;99.90;;;;;;5037457;28;20124;-74
2022/07/12 09:28:07;;;;;;;7.45;4.57;;;22.80;99.90;;;;;;5052375;28;20037;-74
2022/07/12 09:30:33;;;;;;;7.00;4.82;;;;;;;;;;5054020;28;20079;-73
2022/07/12 09:36:17;;;;;;;7.47;5.43;;;23.00;99.90;;;;;;5054052;28;20583;-72
2022/07/12 09:38:54;;;;;;;7.18;4.90;;;;;;;;;;5052479;28;20060;-72
2022/07/12 09:41:23;;;;;;;7.22;4.50;;;;;;;;;;5052926;28;20048;-72
2022/07/12 09:43:50;;;;;;;7.05;4.60;;;;;;;;;;5055449;28;20044;-71
2022/07/12 09:46:16;;;;;;;7.50;4.72;;;;;;;;;;5054379;28;20040;-71
2022/07/12 09:48:44;;;;;;;7.75;5.10;;;;;;;;;;5052796;28;20033;-72
2022/07/12 09:51:13;;;;;;;8.20;4.95;;;23.50;99.90;;;;;;5053175;28;20037;-71
2022/07/12 09:53:49;;;;;;;6.90;5.07;;;23.60;99.90;;;;;;5053530;28;20045;-71
2022/07/12 09:56:17;;;;;;;9.25;5.20;;;23.60;99.90;;;;;;5053138;28;20128;-71
2022/07/12 09:58:59;;;;;;;8.40;5.10;;;23.80;99.90;;;;;;5053918;28;20045;-71
2022/07/12 10:01:25;;;;;;;8.27;5.80;;;24.00;99.90;;;;;;5064280;28;20529;-70
2022/07/12 10:03:52;;;;;;;8.05;5.55;;;;;;;;;;5053558;28;20040;-71
2022/07/12 10:06:25;;;;;;;8.13;5.65;;;;;;;;;;5062446;28;20223;-71
2022/07/12 10:08:52;;;;;;;7.25;5.80;;;;;;;;;;5072673;28;20044;-71
2022/07/12 10:11:19;;;;;;;9.15;6.63;;;;;;;;;;5073783;28;20098;-71
2022/07/12 10:13:46;;;;;;;9.50;7.03;;;;;;;;;;5056111;28;20048;-71
2022/07/12 10:16:14;;;;;;;10.00;6.70;;;;;;;;;;5074036;28;20040;-71
2022/07/12 10:18:40;;;;;;;8.40;6.93;;;;;;;;;;5044517;28;20036;-71
2022/07/12 10:21:18;;;;;;;7.22;6.18;;;;;;;;;;5051993;28;20405;-72
2022/07/12 10:23:44;;;;;;;8.68;7.10;;;;;;;;;;5060177;28;20057;-73
2022/07/12 10:26:17;;;;;;;10.10;6.72;;;;;;;;;;5060758;28;20048;-69
2022/07/12 10:29:12;;;;;;;8.20;6.22;;;;;;;;;;5058525;28;20040;-68
2022/07/12 10:31:41;;;;;;;10.70;6.80;;;;;;;;;;5047401;28;20049;-70
2022/07/12 10:34:14;;;;;;;8.10;6.60;;;;;;;;;;5057529;28;20072;-68
2022/07/12 10:36:56;;;;;;;10.25;7.45;;;;;;;;;;5071697;28;20500;-69
2022/07/12 10:39:22;;;;;;;10.15;7.50;;;;;;;;;;5073028;28;20033;-69
2022/07/12 10:42:07;;;;;;;9.40;6.88;;;;;;;;;;5066591;28;20127;-70
2022/07/12 10:44:34;;;;;;;8.27;5.80;;;;;;;;;;5070839;28;20036;-71
2022/07/12 10:47:01;;;;;;;7.30;5.22;;;;;;;;;;5040895;28;20051;-71
2022/07/12 10:49:28;;;;;;;6.75;4.90;;;;;;;;;;5061432;28;20063;-71
2022/07/12 10:52:13;;;;;;;6.90;4.38;;;;;;;;;;5052710;28;20094;-71
2022/07/12 10:54:43;;;;;;;7.90;5.07;;;;;;;;;;5067708;28;20599;-71
2022/07/12 10:57:09;;;;;;;7.05;5.00;;;;;;;;;;5070256;28;20048;-70
2022/07/12 10:59:36;;;;;;;7.07;4.47;;;;;;;;;;5065091;28;20417;-71
2022/07/12 11:02:03;;;;;;;8.90;5.40;;;;;;;;;;5048674;28;20044;-71
2022/07/12 11:04:29;;;;;;;9.80;5.35;;;;;;;;;;5055547;28;20381;-70
2022/07/12 11:06:57;;;;;;;7.32;5.50;;;;;;;;;;5068257;28;20044;-70
2022/07/12 11:09:24;;;;;;;7.97;5.30;;;;;;;;;;5068887;28;20055;-73
2022/07/12 11:11:51;;;;;;;6.93;4.30;;;;;;;;;;5068509;28;20070;-73
2022/07/12 11:14:21;;;;;;;6.25;4.25;;;;;;;;;;5067795;28;20048;-73
2022/07/12 11:16:48;;;;;;;6.35;4.60;;;;;;;;;;5068620;28;20047;-72
2022/07/12 11:19:14;;;;;;;8.05;4.80;;;;;;;;;;5068845;28;20039;-72
2022/07/12 11:21:43;;;;;;;5.82;3.95;;;;;;;;;;5066283;28;20036;-71
2022/07/12 11:24:20;;;;;;;7.20;3.70;;;;;;;;;;5048794;28;20053;-69
2022/07/12 11:26:46;;;;;;;7.40;4.00;;;;;;;;;;5048804;28;20522;-73
2022/07/12 11:29:12;;;;;;;6.82;3.67;;;;;;;;;;5047223;28;20624;-69
2022/07/12 11:31:38;;;;;;;6.28;3.45;;;;;;;;;;5048382;28;20123;-71
2022/07/12 11:34:04;;;;;;;6.40;3.92;;;;;;;;;;5048492;28;20045;-66
2022/07/12 11:36:31;;;;;;;5.80;3.30;;;;;;;;;;5049658;28;20048;-69
2022/07/12 11:38:57;;;;;;;6.25;3.03;;;;;;;;;;5049846;28;20075;-69
2022/07/12 11:41:24;;;;;;;7.10;3.70;;;;;;;;;;5057835;28;20036;-66
2022/07/12 11:43:50;;;;;;;6.45;3.13;;;25.30;99.90;;;;;;5053688;28;20045;-68
2022/07/12 11:46:16;;;;;;;7.15;3.20;;;25.30;99.90;;;;;;5067190;28;20448;-69
2022/07/12 11:48:42;;;;;;;4.97;3.10;;;25.20;99.90;;;;;;5053524;28;20089;-70
2022/07/12 11:51:13;;;;;;;5.35;2.97;;;25.10;99.90;;;;;;5070242;28;20086;-71
2022/07/12 11:53:40;;;;;;;4.85;2.50;;;25.10;99.90;;;;;;5071309;28;20044;-70
2022/07/12 11:56:07;;;;;;;8.20;2.80;;;25.20;99.90;;;;;;5071087;28;20040;-70
2022/07/12 11:58:38;;;;;;;5.88;3.15;;;25.20;99.90;;;;;;5054272;28;20040;-70
2022/07/12 12:01:09;;;;;;;6.25;3.10;;;25.40;99.90;;;;;;5070498;28;20078;-70
2022/07/12 12:03:44;;;;;;;5.70;3.50;;;25.50;99.90;;;;;;5070103;28;20100;-70
2022/07/12 12:06:09;;;;;;;6.63;3.40;;;25.80;99.90;;;;;;5070738;28;20044;-70
2022/07/12 12:08:36;;;;;;;6.32;2.78;;;;;;;;;;5070982;28;20051;-70
2022/07/12 12:11:07;;;;;;;6.35;3.25;;;;;;;;;;5070860;28;20046;-70
2022/07/12 12:13:33;;;;;;;5.38;2.70;;;;;;;;;;5072842;28;20082;-70
2022/07/12 12:16:00;;;;;;;6.35;3.35;;;;;;;;;;5053408;28;20048;-70
2022/07/12 12:18:29;;;;;;;5.53;3.28;;;;;;;;;;5070628;28;20485;-69
2022/07/12 12:21:00;;;;;;;5.20;3.33;;;;;;;;;;5070438;28;20079;-69
2022/07/12 12:23:26;;;;;;;6.75;2.83;;;26.70;99.90;;;;;;5069835;28;20168;-69
2022/07/12 12:25:51;;;;;;;6.05;2.53;;;26.40;99.90;;;;;;5070525;28;20067;-70
2022/07/12 12:28:17;;;;;;;6.35;2.88;;;26.30;99.90;;;;;;5071807;28;20051;-70
2022/07/12 12:30:56;;;;;;;4.28;2.45;;;;;;;;;;5070708;28;20040;-70
2022/07/12 12:33:36;;;;;;;5.72;2.15;;;;;;;;;;5054260;28;20072;-70
2022/07/12 12:36:32;;;;;;;4.43;2.17;;;;;;;;;;5071439;28;20128;-69
2022/07/12 12:38:59;;;;;;;4.18;1.90;;;;;;;;;;5064642;28;20092;-69
2022/07/12 12:41:26;;;;;;;5.70;2.38;;;;;;;;;;5054380;28;20044;-69
2022/07/12 12:44:02;;;;;;;4.68;2.35;;;;;;;;;;5074507;28;20377;-68
2022/07/12 12:47:30;;;;;;;3.25;1.90;;;26.70;99.90;;;;;;5073654;28;20131;-69
2022/07/12 12:49:45;;;;;;;5.78;1.70;;;;;;;;;;5074031;28;20052;-69
2022/07/12 12:52:11;;;;;;;4.13;1.88;;;;;;;;;;5073263;28;20051;-69
2022/07/12 12:54:38;;;;;;;3.60;2.22;;;;;;;;;;5075601;28;20036;-70
2022/07/12 12:57:05;;;;;;;6.72;1.90;;;26.40;99.90;;;;;;5056970;28;20481;-70
2022/07/12 12:59:32;;;;;;;5.25;2.20;;;26.40;99.90;;;;;;5074608;28;20091;-69
2022/07/12 13:01:59;;;;;;;4.13;2.15;;;26.30;99.90;;;;;;5073817;28;20048;-69
2022/07/12 13:04:32;;;;;;;4.90;2.00;;;26.40;99.90;;;;;;5074124;28;20486;-69
2022/07/12 13:06:58;;;;;;;6.50;1.92;;;26.40;99.90;;;;;;5074153;28;20082;-69
2022/07/12 13:09:24;;;;;;;5.22;1.77;;;26.30;99.90;;;;;;5075238;28;20040;-69
2022/07/12 13:11:50;;;;;;;4.38;1.83;;;;;;;;;;5073845;28;20053;-70
2022/07/12 13:14:17;;;;;;;4.55;1.98;;;26.10;92.90;;;;;;5074038;28;20041;-69
2022/07/12 13:16:43;;;;;;;3.40;1.80;;;26.00;92.10;;;;;;5073764;28;20406;-70
2022/07/12 13:19:14;;;;;;;3.97;2.03;;;;;;;;;;5063356;28;20052;-70
2022/07/12 13:21:40;;;;;;;4.60;2.03;;;25.80;99.90;;;;;;5059336;28;20032;-68
2022/07/12 13:24:06;;;;;;;4.50;2.15;;;25.90;99.90;;;;;;5071717;28;20474;-69
2022/07/12 13:26:31;;;;;;;5.55;2.38;;;25.80;99.10;;;;;;5067375;28;20037;-68
2022/07/12 13:28:57;;;;;;;3.45;1.63;;;;;;;;;;5060531;28;20049;-69
2022/07/12 13:31:26;;;;;;;4.35;2.40;;;;;;;;;;5065643;28;20560;-68
2022/07/12 13:33:52;;;;;;;4.57;2.67;;;;;;;;;;5058988;28;20051;-68
2022/07/12 13:36:18;;;;;;;6.43;2.80;;;;;;;;;;5049606;28;20064;-69
2022/07/12 13:38:44;;;;;;;5.15;2.40;;;;;;;;;;5068541;28;20086;-68
2022/07/12 13:41:10;;;;;;;4.72;2.72;;;;;;;;;;5052375;28;20044;-68
2022/07/12 13:43:36;;;;;;;5.50;2.85;;;;;;;;;;5071744;28;20453;-68
2022/07/12 13:46:02;;;;;;;4.97;2.50;;;;;;;;;;5070407;28;20044;-68
2022/07/12 13:48:29;;;;;;;5.53;2.78;;;;;;;;;;5069733;28;20077;-69
2022/07/12 13:50:55;;;;;;;6.05;3.22;;;;;;;;;;5053410;28;20102;-69
2022/07/12 13:53:21;;;;;;;5.55;3.30;;;;;;;;;;5051690;28;20457;-69
2022/07/12 13:55:47;;;;;;;7.15;3.60;;;;;;;;;;5049769;28;20405;-69
2022/07/12 13:58:16;;;;;;;5.57;3.10;;;;;;;;;;5051149;28;20536;-69
2022/07/12 14:00:42;;;;;;;5.35;3.00;;;;;;;;;;5051810;28;20045;-69
2022/07/12 14:03:08;;;;;;;7.50;3.90;;;;;;;;;;5050483;28;20051;-67
2022/07/12 14:05:35;;;;;;;7.18;3.60;;;;;;;;;;5050942;28;20064;-68
2022/07/12 14:08:01;;;;;;;6.32;3.45;;;;;;;;;;5057365;28;20052;-68
2022/07/12 14:10:27;;;;;;;6.70;3.03;;;;;;;;;;5070017;28;20493;-68
2022/07/12 14:12:53;;;;;;;5.32;3.03;;;;;;;;;;5070677;28;20083;-69
2022/07/12 14:15:35;;;;;;;7.30;3.53;;;;;;;;;;5067519;28;20048;-68
2022/07/12 14:18:02;;;;;;;5.45;3.47;;;;;;;;;;5069017;28;20048;-69
2022/07/12 14:20:30;;;;;;;5.60;3.47;;;;;;;;;;5069892;28;20083;-69
2022/07/12 14:22:56;;;;;;;6.63;3.22;;;;;;;;;;5063024;28;20061;-68